Time;durP1;ratioP1;P1;durP2;ratioP2;P2;SDS_P1;SDS_P2;PMS_P1;PMS_P2;Temp;Humidity;BMP_temperature;BMP_pressure;BME280_temperature;BME280_humidity;BME280_pressure;Samples;Min_cycle;Max_cycle;Signal;HPM_P1;HPM_P2
2022/09/12 14:40:18;;;;;;;9.73;7.97;;;24.30;74.80;;;;;;5010349;27;87576;-71
2022/09/12 14:42:51;;;;;;;8.68;7.07;;;24.70;72.00;;;;;;4953090;28;98437;-70
2022/09/12 14:45:30;;;;;;;7.93;7.22;;;25.00;71.40;;;;;;4975097;28;88612;-70
2022/09/12 14:47:58;;;;;;;8.55;7.55;;;25.30;70.40;;;;;;4993168;28;91075;-69
2022/09/12 14:50:28;;;;;;;8.90;6.97;;;25.50;70.40;;;;;;4994795;28;88135;-69
2022/09/12 14:53:17;;;;;;;9.30;7.55;;;25.70;69.90;;;;;;4993988;28;88022;-69
2022/09/12 14:56:04;;;;;;;8.82;7.53;;;26.00;68.00;;;;;;4990724;28;87480;-69
2022/09/12 14:58:32;;;;;;;8.43;7.28;;;26.00;68.20;;;;;;4994753;28;88402;-69
2022/09/12 15:01:22;;;;;;;9.18;6.82;;;26.10;68.70;;;;;;4992360;28;112816;-70
2022/09/12 15:03:52;;;;;;;8.25;7.45;;;26.30;67.80;;;;;;4992947;28;88282;-69
2022/09/12 15:06:37;;;;;;;8.35;7.65;;;26.30;67.90;;;;;;4995036;28;87439;-69
2022/09/12 15:09:12;;;;;;;8.82;7.50;;;26.40;66.90;;;;;;4994791;28;88390;-70
2022/09/12 15:11:39;;;;;;;7.72;7.03;;;26.50;67.00;;;;;;4976767;28;90462;-70
2022/09/12 15:14:13;;;;;;;7.32;6.70;;;26.60;67.00;;;;;;4977159;28;87528;-70
2022/09/12 15:16:40;;;;;;;8.55;7.80;;;26.70;65.80;;;;;;4993222;28;87520;-70
2022/09/12 15:19:07;;;;;;;7.10;6.50;;;26.80;65.60;;;;;;4994673;28;88391;-70
2022/09/12 15:21:34;;;;;;;8.10;7.40;;;26.90;65.90;;;;;;4993469;28;87967;-70
2022/09/12 15:24:01;;;;;;;7.80;7.20;;;26.80;65.50;;;;;;4992839;28;99836;-70
2022/09/12 15:26:30;;;;;;;8.05;7.40;;;26.70;65.40;;;;;;4994461;28;87606;-70
2022/09/12 15:28:57;;;;;;;8.07;7.32;;;26.70;65.70;;;;;;4992725;28;90830;-70
2022/09/12 15:31:27;;;;;;;8.10;7.40;;;26.70;65.70;;;;;;4992890;28;90532;-70
2022/09/12 15:33:56;;;;;;;7.57;6.97;;;26.70;65.30;;;;;;4994198;28;87606;-69
2022/09/12 15:36:23;;;;;;;8.25;5.35;;;26.60;65.40;;;;;;4994038;28;94827;-70
2022/09/12 15:38:51;;;;;;;6.38;5.50;;;26.60;65.20;;;;;;4992042;28;88299;-70
2022/09/12 15:41:35;;;;;;;5.85;5.35;;;26.60;65.20;;;;;;4993059;28;88104;-70
2022/09/12 15:44:11;;;;;;;6.97;6.38;;;26.60;64.90;;;;;;4994320;28;87406;-70
2022/09/12 15:46:38;;;;;;;6.70;6.18;;;26.70;64.60;;;;;;4976570;28;89581;-70
2022/09/12 15:49:08;;;;;;;5.57;5.18;;;26.70;64.70;;;;;;4984377;28;96586;-69
2022/09/12 15:51:35;;;;;;;7.03;6.32;;;26.60;64.20;;;;;;4979585;28;90730;-69
2022/09/12 15:54:03;;;;;;;5.72;5.25;;;26.70;64.40;;;;;;4980726;28;87477;-69
2022/09/12 15:56:30;;;;;;;5.53;5.03;;;26.60;64.40;;;;;;4979552;28;87489;-70
2022/09/12 15:58:57;;;;;;;5.57;4.97;;;26.60;64.60;;;;;;4979414;28;88394;-70
2022/09/12 16:01:27;;;;;;;4.95;4.50;;;26.60;64.60;;;;;;4980417;28;88818;-70
2022/09/12 16:03:54;;;;;;;5.97;5.43;;;26.60;64.80;;;;;;4980468;28;87588;-70
2022/09/12 16:06:21;;;;;;;5.97;5.47;;;26.60;64.70;;;;;;4980033;28;105777;-69
2022/09/12 16:08:48;;;;;;;5.43;4.93;;;26.60;64.50;;;;;;4979123;28;90833;-70
2022/09/12 16:11:21;;;;;;;6.65;6.13;;;26.50;64.20;;;;;;4980539;28;88025;-69
2022/09/12 16:13:50;;;;;;;;;;;26.40;63.90;;;;;;4979311;28;90514;-69
2022/09/12 16:16:17;;;;;;;6.32;5.93;;;26.20;63.90;;;;;;4981317;28;96256;-69
2022/09/12 16:18:44;;;;;;;6.55;5.97;;;26.10;64.90;;;;;;4962676;28;90967;-70
2022/09/12 16:21:11;;;;;;;5.85;5.20;;;26.10;64.90;;;;;;4962807;28;90412;-69
2022/09/12 16:23:45;;;;;;;5.65;5.18;;;26.10;65.00;;;;;;4979016;28;87525;-69
2022/09/12 16:26:12;;;;;;;5.93;5.28;;;26.10;65.10;;;;;;4980380;28;87580;-69
2022/09/12 16:28:40;;;;;;;7.00;5.82;;;26.00;65.10;;;;;;4979881;28;103586;-70
2022/09/12 16:31:09;;;;;;;6.63;6.03;;;26.00;65.40;;;;;;4979979;28;88058;-69
2022/09/12 16:33:37;;;;;;;6.95;5.85;;;25.90;65.70;;;;;;4979927;28;87969;-69
2022/09/12 16:36:13;;;;;;;5.57;5.10;;;25.80;65.80;;;;;;4962139;28;97596;-69
2022/09/12 16:38:51;;;;;;;5.28;4.78;;;25.80;65.70;;;;;;4979389;28;88404;-69
2022/09/12 16:41:20;;;;;;;4.55;4.15;;;25.60;65.80;;;;;;4980443;28;88674;-69
2022/09/12 16:43:47;;;;;;;5.55;4.30;;;25.50;66.20;;;;;;4979977;28;87456;-69
2022/09/12 16:46:23;;;;;;;6.80;4.43;;;25.40;66.30;;;;;;4979365;28;103741;-69
2022/09/12 16:48:56;;;;;;;5.00;4.38;;;25.50;66.40;;;;;;4979583;28;87954;-69
2022/09/12 16:51:26;;;;;;;5.50;5.07;;;25.40;66.70;;;;;;4979889;28;88065;-69
2022/09/12 16:53:54;;;;;;;5.03;4.63;;;25.30;67.00;;;;;;4979620;28;87505;-69
2022/09/12 16:56:21;;;;;;;5.60;5.10;;;25.20;67.00;;;;;;4979906;28;87588;-69
2022/09/12 16:58:49;;;;;;;4.78;4.38;;;25.10;66.90;;;;;;4978555;28;88345;-69
2022/09/12 17:01:22;;;;;;;6.43;5.88;;;25.00;67.20;;;;;;4978319;28;99661;-69
2022/09/12 17:03:56;;;;;;;5.13;4.65;;;25.00;67.20;;;;;;4979781;28;87417;-70
2022/09/12 17:06:24;;;;;;;5.40;5.00;;;24.90;68.10;;;;;;4978332;28;87590;-69
2022/09/12 17:08:53;;;;;;;7.72;4.78;;;24.80;67.70;;;;;;4979440;28;88347;-69
2022/09/12 17:11:26;;;;;;;6.20;5.72;;;24.80;67.80;;;;;;4979262;28;88031;-69
2022/09/12 17:13:54;;;;;;;6.28;5.68;;;24.80;67.90;;;;;;4979084;28;88054;-69
2022/09/12 17:16:40;;;;;;;7.82;5.82;;;24.70;67.80;;;;;;4979572;28;87416;-69
2022/09/12 17:19:12;;;;;;;5.53;5.03;;;24.70;68.10;;;;;;4979132;28;88179;-70
2022/09/12 17:21:39;;;;;;;6.13;5.63;;;24.60;68.20;;;;;;4979664;28;88174;-69
2022/09/12 17:24:06;;;;;;;5.40;4.55;;;24.50;68.40;;;;;;4977477;28;97804;-69
2022/09/12 17:26:33;;;;;;;6.70;4.97;;;24.40;68.60;;;;;;4979428;28;88059;-69
2022/09/12 17:29:00;;;;;;;5.78;5.25;;;24.40;68.80;;;;;;4979063;28;88178;-69
2022/09/12 17:31:27;;;;;;;6.32;5.82;;;24.40;69.00;;;;;;4977616;28;90615;-69
2022/09/12 17:33:58;;;;;;;5.00;4.53;;;24.30;69.30;;;;;;4961775;28;87733;-69
2022/09/12 17:36:27;;;;;;;6.45;5.95;;;24.20;69.50;;;;;;4978023;28;87613;-69
2022/09/12 17:38:54;;;;;;;5.70;5.28;;;24.10;69.80;;;;;;4978250;28;98129;-69
2022/09/12 17:41:26;;;;;;;7.00;6.38;;;24.00;70.00;;;;;;4979058;28;87352;-69
2022/09/12 17:43:56;;;;;;;6.13;5.03;;;23.90;70.20;;;;;;4979007;28;87488;-69
2022/09/12 17:46:25;;;;;;;4.90;4.50;;;23.90;70.50;;;;;;4977455;28;92274;-69
2022/09/12 17:48:55;;;;;;;6.15;5.20;;;23.80;70.80;;;;;;4961538;28;88485;-69
2022/09/12 17:51:24;;;;;;;6.18;4.90;;;23.70;71.00;;;;;;4977383;28;89219;-69
2022/09/12 17:54:03;;;;;;;7.60;6.88;;;23.60;71.20;;;;;;4979107;28;87847;-69
2022/09/12 17:56:31;;;;;;;9.35;5.38;;;23.60;71.60;;;;;;4979093;28;87623;-72
2022/09/12 17:58:59;;;;;;;10.88;6.05;;;23.40;71.90;;;;;;4978671;28;88344;-72
2022/09/12 18:04:13;;;;;;;5.30;4.90;;;23.30;72.80;;;;;;4963787;28;90019;-72
2022/09/12 18:06:46;;;;;;;6.45;5.95;;;23.20;72.30;;;;;;4978684;28;87699;-72
2022/09/12 18:09:16;;;;;;;5.55;5.05;;;23.20;72.50;;;;;;4960778;28;91307;-72
2022/09/12 18:11:44;;;;;;;6.35;5.85;;;23.10;72.50;;;;;;4978442;28;87951;-72
2022/09/12 18:14:11;;;;;;;7.40;4.95;;;23.10;72.90;;;;;;4976948;28;89713;-72
2022/09/12 18:16:40;;;;;;;5.60;5.13;;;23.10;73.20;;;;;;4977326;28;89536;-72
2022/09/12 18:19:07;;;;;;;5.90;5.40;;;23.10;73.40;;;;;;4960648;28;90757;-72
2022/09/12 18:21:34;;;;;;;7.13;6.53;;;23.10;73.60;;;;;;4961200;28;90664;-72
2022/09/12 18:24:02;;;;;;;7.15;6.45;;;23.00;73.70;;;;;;4978273;28;87656;-72
2022/09/12 18:26:30;;;;;;;5.78;5.28;;;23.00;74.00;;;;;;4977002;28;89660;-72
2022/09/12 18:28:57;;;;;;;6.45;5.85;;;22.90;74.20;;;;;;4944591;28;91155;-72
2022/09/12 18:31:28;;;;;;;7.43;6.82;;;22.80;74.40;;;;;;4977153;28;88147;-72
2022/09/12 18:33:56;;;;;;;8.18;7.40;;;22.80;74.60;;;;;;4977126;28;89657;-72
2022/09/12 18:36:23;;;;;;;6.15;5.55;;;22.70;74.70;;;;;;4977888;28;96989;-72
2022/09/12 18:38:50;;;;;;;6.95;6.25;;;22.60;74.90;;;;;;4977786;28;87542;-72
2022/09/12 18:41:20;;;;;;;7.20;6.50;;;22.50;75.10;;;;;;4978272;28;88110;-72
2022/09/12 18:43:47;;;;;;;7.40;6.70;;;22.50;75.40;;;;;;4978409;28;87491;-73
2022/09/12 18:46:17;;;;;;;8.52;6.63;;;22.40;75.40;;;;;;4978332;28;87531;-72
2022/09/12 18:48:45;;;;;;;6.35;5.78;;;22.40;75.60;;;;;;4976855;28;90933;-71
2022/09/12 18:51:16;;;;;;;6.97;5.97;;;22.30;75.60;;;;;;4976298;28;88762;-71
2022/09/12 18:53:55;;;;;;;8.50;6.20;;;22.30;75.50;;;;;;4978352;28;88565;-71
2022/09/12 18:56:42;;;;;;;6.82;6.22;;;22.20;75.70;;;;;;4976483;28;89400;-71
2022/09/12 18:59:31;;;;;;;5.90;5.28;;;22.10;76.10;;;;;;4963479;28;89370;-71
2022/09/12 19:01:58;;;;;;;8.00;7.30;;;22.00;76.40;;;;;;4975775;28;92023;-71
2022/09/12 19:04:25;;;;;;;6.95;6.28;;;22.00;77.20;;;;;;4976093;28;91954;-71
2022/09/12 19:06:52;;;;;;;6.97;5.85;;;22.00;76.70;;;;;;4977460;28;87952;-71
2022/09/12 19:09:19;;;;;;;8.30;6.05;;;22.00;76.90;;;;;;4957385;28;91044;-71
2022/09/12 19:11:48;;;;;;;7.88;7.05;;;21.90;76.90;;;;;;4976308;28;88734;-71
2022/09/12 19:14:17;;;;;;;7.50;6.28;;;21.90;77.00;;;;;;4976898;28;101715;-71
2022/09/12 19:16:44;;;;;;;8.32;6.95;;;21.90;77.10;;;;;;4976312;28;89538;-71
2022/09/12 19:19:11;;;;;;;7.00;6.40;;;21.90;77.20;;;;;;4975717;28;91203;-71
2022/09/12 19:21:38;;;;;;;8.60;7.60;;;21.90;77.20;;;;;;4976446;28;91491;-71
2022/09/12 19:24:08;;;;;;;9.30;6.70;;;21.80;77.10;;;;;;4977316;28;88660;-71
2022/09/12 19:26:37;;;;;;;8.45;7.72;;;21.80;77.20;;;;;;4979034;28;89717;-71
2022/09/12 19:29:04;;;;;;;8.13;7.30;;;21.80;77.30;;;;;;4980720;28;88438;-71
2022/09/12 19:31:31;;;;;;;8.63;7.80;;;21.80;77.40;;;;;;4979176;28;88831;-71
2022/09/12 19:34:00;;;;;;;9.70;8.80;;;21.80;77.50;;;;;;4980310;28;96915;-71
2022/09/12 19:36:27;;;;;;;8.30;7.50;;;21.80;77.70;;;;;;4980706;28;88436;-71
2022/09/12 19:39:12;;;;;;;9.73;8.82;;;21.70;77.70;;;;;;4980252;28;88405;-71
2022/09/12 19:41:39;;;;;;;12.30;10.13;;;21.70;77.90;;;;;;4963170;28;91253;-71
2022/09/12 19:44:06;;;;;;;8.93;8.13;;;21.70;77.90;;;;;;4961945;28;91007;-71
2022/09/12 19:46:33;;;;;;;11.10;10.00;;;21.70;78.00;;;;;;4980064;28;89072;-71
2022/09/12 19:49:00;;;;;;;9.77;8.30;;;21.70;78.00;;;;;;4961897;28;91109;-71
2022/09/12 19:51:27;;;;;;;10.07;9.02;;;21.70;78.10;;;;;;4978798;28;89552;-71
2022/09/12 19:53:54;;;;;;;9.60;8.70;;;21.70;78.20;;;;;;4979135;28;89106;-71
2022/09/12 19:56:21;;;;;;;9.23;8.38;;;21.70;78.30;;;;;;4980266;28;88011;-71
2022/09/12 19:58:49;;;;;;;9.05;8.25;;;21.70;78.30;;;;;;4962642;28;91394;-71
2022/09/12 20:01:28;;;;;;;;;;;21.70;78.20;;;;;;4980710;28;88795;-71
2022/09/12 20:03:57;;;;;;;10.10;9.30;;;21.60;78.40;;;;;;4997066;28;88216;-71
2022/09/12 20:06:25;;;;;;;10.38;8.05;;;21.50;78.70;;;;;;4963020;28;88092;-71
2022/09/12 20:08:52;;;;;;;9.57;8.15;;;21.50;78.50;;;;;;4979133;28;93510;-71
2022/09/12 20:11:22;;;;;;;8.85;8.05;;;21.60;78.50;;;;;;4962219;28;90527;-71
2022/09/12 20:13:49;;;;;;;11.05;9.95;;;21.60;78.40;;;;;;4978780;28;88725;-71
2022/09/12 20:16:19;;;;;;;10.07;9.18;;;21.60;78.30;;;;;;4978152;28;88724;-71
2022/09/12 20:18:54;;;;;;;8.90;8.00;;;21.60;78.20;;;;;;4979962;28;88354;-71
2022/09/12 20:21:29;;;;;;;10.98;9.95;;;21.70;78.30;;;;;;4980069;28;88865;-71
2022/09/12 20:24:08;;;;;;;10.48;9.45;;;21.70;78.40;;;;;;4978596;28;91254;-71
2022/09/12 20:26:36;;;;;;;9.85;8.95;;;21.70;78.30;;;;;;4980064;28;88007;-71
2022/09/12 20:29:04;;;;;;;8.73;7.82;;;21.70;78.30;;;;;;4978956;28;88535;-71
2022/09/12 20:31:32;;;;;;;9.25;8.35;;;21.70;78.20;;;;;;4978380;28;88866;-71
2022/09/12 20:33:59;;;;;;;9.15;8.23;;;21.70;78.20;;;;;;4978828;28;91330;-71
2022/09/12 20:36:26;;;;;;;10.75;9.82;;;21.70;78.20;;;;;;4978171;28;88070;-71
2022/09/12 20:38:59;;;;;;;10.40;9.38;;;21.80;78.30;;;;;;4979135;28;88315;-71
2022/09/12 20:41:29;;;;;;;9.93;9.13;;;21.80;78.30;;;;;;4979120;28;89594;-71
2022/09/12 20:43:56;;;;;;;9.98;8.95;;;21.70;78.40;;;;;;4978122;28;90893;-71
2022/09/12 20:46:25;;;;;;;9.60;8.60;;;21.70;78.50;;;;;;4978354;28;88076;-71
2022/09/12 20:48:53;;;;;;;10.05;9.15;;;21.70;78.50;;;;;;4979231;28;88515;-71
2022/09/12 20:51:20;;;;;;;12.15;9.25;;;21.70;78.60;;;;;;4978314;28;88726;-71
2022/09/12 20:53:51;;;;;;;11.30;10.13;;;21.70;78.70;;;;;;4977586;28;107892;-71
2022/09/12 20:56:18;;;;;;;10.13;9.15;;;21.70;78.70;;;;;;4978958;28;88524;-71
2022/09/12 20:58:44;;;;;;;11.27;9.82;;;21.70;79.00;;;;;;4961964;28;91142;-71
2022/09/12 21:01:13;;;;;;;11.32;10.15;;;21.60;79.30;;;;;;4961672;28;91438;-71
2022/09/12 21:03:41;;;;;;;11.60;10.27;;;21.60;79.50;;;;;;4978435;28;89287;-71
2022/09/12 21:06:09;;;;;;;11.18;9.70;;;21.60;79.80;;;;;;4977303;28;88918;-71
2022/09/12 21:08:36;;;;;;;10.13;9.23;;;21.60;79.90;;;;;;4979275;28;88329;-71
2022/09/12 21:11:04;;;;;;;11.50;10.48;;;21.60;80.00;;;;;;4979242;28;96205;-71
2022/09/12 21:13:31;;;;;;;11.55;9.80;;;21.60;80.00;;;;;;4978181;28;89305;-71
2022/09/12 21:16:02;;;;;;;10.65;9.65;;;21.60;80.00;;;;;;4977783;28;89104;-71
2022/09/12 21:18:30;;;;;;;10.70;9.57;;;21.60;80.00;;;;;;4977886;28;88272;-71
2022/09/12 21:20:58;;;;;;;10.95;9.95;;;21.50;80.00;;;;;;4977877;28;88757;-71
2022/09/12 21:23:26;;;;;;;13.95;9.70;;;21.50;80.00;;;;;;4979364;28;88499;-72
2022/09/12 21:25:53;;;;;;;11.20;10.25;;;21.50;80.10;;;;;;4977975;28;88024;-71
2022/09/12 21:28:21;;;;;;;10.63;9.52;;;21.50;80.20;;;;;;4978121;28;88469;-71
2022/09/12 21:30:48;;;;;;;11.90;10.73;;;21.50;80.30;;;;;;4977024;28;92006;-71
2022/09/12 21:33:17;;;;;;;12.95;11.65;;;21.50;80.20;;;;;;4960414;28;91927;-71
2022/09/12 21:35:44;;;;;;;12.95;10.20;;;21.50;80.20;;;;;;4977980;28;88889;-71
2022/09/12 21:38:11;;;;;;;11.85;10.45;;;21.50;80.30;;;;;;4976701;28;88513;-71
2022/09/12 21:40:38;;;;;;;10.85;9.23;;;21.50;80.40;;;;;;4976353;28;93884;-71
2022/09/12 21:43:06;;;;;;;11.52;10.43;;;21.50;80.60;;;;;;4978724;28;88499;-71
2022/09/12 21:45:37;;;;;;;11.98;10.85;;;21.40;80.60;;;;;;4960943;28;89489;-71
2022/09/12 21:48:05;;;;;;;10.52;9.48;;;21.50;80.70;;;;;;4976485;28;88516;-71
2022/09/12 21:50:31;;;;;;;11.05;10.07;;;21.50;80.70;;;;;;4959948;28;105134;-71
2022/09/12 21:52:58;;;;;;;10.48;9.32;;;21.40;80.70;;;;;;4977917;28;89530;-71
2022/09/12 21:55:26;;;;;;;11.77;9.85;;;21.40;80.70;;;;;;4960850;28;89012;-71
2022/09/12 21:57:53;;;;;;;12.20;10.15;;;21.40;81.40;;;;;;4978340;28;88429;-71
2022/09/12 22:00:21;;;;;;;11.50;10.40;;;21.40;80.90;;;;;;4960220;28;91648;-71
2022/09/12 22:02:48;;;;;;;12.20;10.45;;;21.40;80.90;;;;;;4976314;28;89624;-71
2022/09/12 22:05:16;;;;;;;13.27;10.48;;;21.40;81.00;;;;;;4977721;28;88853;-71
2022/09/12 22:07:43;;;;;;;11.25;9.70;;;21.40;81.20;;;;;;4977504;28;88442;-71
2022/09/12 22:10:10;;;;;;;10.20;9.20;;;21.30;81.40;;;;;;4976764;28;91614;-71
2022/09/12 22:12:37;;;;;;;11.57;9.60;;;21.20;81.40;;;;;;4977371;28;88670;-71
2022/09/12 22:15:06;;;;;;;11.93;10.93;;;21.20;81.40;;;;;;4978132;28;88052;-71
2022/09/12 22:17:53;;;;;;;10.75;9.65;;;21.20;81.30;;;;;;4975780;28;91222;-71
2022/09/12 22:20:20;;;;;;;10.52;9.48;;;21.20;81.40;;;;;;4959756;28;100544;-71
2022/09/12 22:25:32;;;;;;;12.05;9.90;;;21.20;81.30;;;;;;4976305;28;88044;-71
2022/09/12 22:28:00;;;;;;;12.95;10.07;;;21.20;81.40;;;;;;4950033;28;91553;-71
2022/09/12 22:30:27;;;;;;;11.57;10.15;;;21.20;81.50;;;;;;4940347;28;91364;-71
2022/09/12 22:32:54;;;;;;;11.48;9.52;;;21.20;81.50;;;;;;4957635;28;89200;-71
2022/09/12 22:35:21;;;;;;;13.05;10.15;;;21.20;81.40;;;;;;4940867;28;87981;-71
2022/09/12 22:37:48;;;;;;;11.55;8.98;;;21.20;81.70;;;;;;4956517;28;88799;-71
2022/09/12 22:40:15;;;;;;;11.90;10.88;;;21.20;81.90;;;;;;4957775;28;88530;-71
2022/09/12 22:42:42;;;;;;;10.60;9.60;;;21.20;82.20;;;;;;4939903;28;90508;-71
2022/09/12 22:45:09;;;;;;;11.50;9.10;;;21.20;82.40;;;;;;4957844;28;88894;-71
2022/09/12 22:47:36;;;;;;;9.90;8.95;;;21.20;82.50;;;;;;4957035;28;88306;-74
2022/09/12 22:50:03;;;;;;;10.98;9.98;;;21.20;82.60;;;;;;4956874;28;90002;-73
2022/09/12 22:52:30;;;;;;;9.40;8.45;;;21.20;82.60;;;;;;4956321;28;89436;-72
2022/09/12 22:54:57;;;;;;;10.38;9.10;;;21.20;82.50;;;;;;4956516;28;91976;-72
2022/09/12 22:57:24;;;;;;;10.10;8.95;;;21.20;82.60;;;;;;4956841;28;90944;-72
2022/09/12 22:59:51;;;;;;;9.85;8.00;;;21.20;82.70;;;;;;4942708;28;94428;-72
2022/09/12 23:02:18;;;;;;;9.70;8.70;;;21.20;82.70;;;;;;4961961;28;88651;-72
2022/09/12 23:04:45;;;;;;;8.85;8.13;;;21.20;82.80;;;;;;4961380;28;95153;-72
2022/09/12 23:07:13;;;;;;;10.02;9.13;;;21.20;83.00;;;;;;4961751;28;88891;-72
2022/09/12 23:09:40;;;;;;;10.27;9.27;;;21.20;83.20;;;;;;4959906;28;89348;-72
2022/09/12 23:12:07;;;;;;;9.75;8.70;;;21.10;83.40;;;;;;4961405;28;89412;-72
2022/09/12 23:14:34;;;;;;;8.68;7.88;;;21.20;83.70;;;;;;4960221;28;88588;-72
2022/09/12 23:17:01;;;;;;;9.00;8.18;;;21.20;84.00;;;;;;4943484;28;90926;-72
2022/09/12 23:19:28;;;;;;;10.80;9.80;;;21.20;84.20;;;;;;4961340;28;88833;-72
2022/09/12 23:21:55;;;;;;;10.25;9.27;;;21.10;84.40;;;;;;4959961;28;90274;-72
2022/09/12 23:24:21;;;;;;;17.98;10.57;;;21.10;84.80;;;;;;4960050;28;88050;-72
2022/09/12 23:26:48;;;;;;;12.00;10.95;;;21.10;85.20;;;;;;4959554;28;88462;-72
2022/09/12 23:29:15;;;;;;;11.32;10.32;;;21.00;85.90;;;;;;4958861;28;99747;-72
2022/09/12 23:31:42;;;;;;;15.40;12.52;;;21.00;86.80;;;;;;4959057;28;89425;-72
2022/09/12 23:34:09;;;;;;;13.13;11.82;;;20.90;87.50;;;;;;4960070;28;89022;-72
2022/09/12 23:36:36;;;;;;;12.60;11.50;;;20.90;88.20;;;;;;4960741;28;89016;-72
2022/09/12 23:39:03;;;;;;;13.70;12.35;;;20.90;88.80;;;;;;4959913;28;88694;-72
2022/09/12 23:41:31;;;;;;;14.07;12.70;;;20.80;89.30;;;;;;4958916;28;92195;-72
2022/09/12 23:43:58;;;;;;;14.50;12.98;;;20.70;89.50;;;;;;4958820;28;89080;-72
2022/09/12 23:46:24;;;;;;;15.35;13.25;;;20.70;89.70;;;;;;4959752;28;100375;-72
2022/09/12 23:48:54;;;;;;;15.65;14.10;;;20.70;90.10;;;;;;4959999;28;88924;-72
2022/09/12 23:51:21;;;;;;;15.73;14.13;;;20.60;90.20;;;;;;4958831;28;89439;-72
2022/09/12 23:53:48;;;;;;;16.95;13.90;;;20.60;90.50;;;;;;4959150;28;88913;-72
2022/09/12 23:56:15;;;;;;;14.02;12.70;;;20.50;90.70;;;;;;4960169;28;88524;-72
2022/09/12 23:58:42;;;;;;;17.27;12.65;;;20.50;90.80;;;;;;4959857;28;89737;-72
